Latest Weather Observations for Smithton

IDT60801

Issued at 6:31 pm EST Thursday 5 May 2016 (issued every 30 minutes, with the page automatically refreshed every 10 minutes)

About weather observations | Map of weather stations | Latest weather observations for TAS | Other Formats
Station Details ID: 091292 Name: SMITHTON AERODROME Lat: -40.83 Lon: 145.08 Height: 7.5 m
Data from the previous 72 hours. | See also: Recent months at Smithton
Date/Time
EST
Temp
°C
App
Temp
°C
Dew
Point
Rel
Hum
%
Delta-T
°C
Wind Press
QNH
hPa
Press
MSL
hPa
Rain
since 9 am
mm
Dir
 
Spd
km/h
Gust
km/h
Spd
kts
Gust
kts
05/06:30pm 17.1 12.5 12.2 73 2.7 N 28 35 15 19 1008.7 - 0.0
05/06:00pm 16.9 12.3 12.2 74 2.6 NNW 28 35 15 19 1008.5 1008.5 0.0
05/05:30pm 16.9 12.3 12.4 75 2.5 NNW 28 39 15 21 1008.3 - 0.0
05/05:00pm 16.8 12.6 12.3 75 2.5 N 26 33 14 18 1008.4 - 0.0
05/04:30pm 16.8 12.5 12.1 74 2.6 N 26 35 14 19 1008.5 - 0.0
05/04:00pm 17.0 12.0 12.1 73 2.7 N 30 41 16 22 1008.5 - 0.0
05/03:30pm 16.8 11.8 12.1 74 2.6 NNW 30 39 16 21 1008.6 - 0.0
05/03:00pm 16.2 11.3 12.7 80 1.9 NNW 30 44 16 24 1008.7 1008.7 0.0
05/02:30pm 16.8 11.4 12.3 75 2.5 N 32 43 17 23 1008.8 - 0.0
05/02:00pm 17.1 11.3 12.6 75 2.5 NNW 35 48 19 26 1008.9 - 0.0
05/01:30pm 17.0 11.7 12.5 75 2.5 NNW 32 43 17 23 1009.0 - 0.0
05/01:14pm 16.9 11.4 12.4 75 2.5 NNW 33 52 18 28 1009.2 - 0.0
05/01:00pm 17.1 11.6 12.4 74 2.6 NNW 33 48 18 26 1009.3 - 0.0
05/12:30pm 17.6 11.0 12.5 72 2.8 NNW 39 52 21 28 1009.7 - 0.0
05/12:09pm 17.5 12.2 12.6 73 2.7 NNW 32 50 17 27 1010.0 - 0.0
05/12:00pm 17.0 11.5 12.5 75 2.5 NNW 33 48 18 26 1010.2 1010.2 0.0
05/11:30am 18.2 12.8 12.9 71 3.0 N 33 46 18 25 1010.5 - 0.0
05/11:00am 17.1 11.1 12.2 73 2.7 NNW 35 50 19 27 1011.0 - 0.0
05/10:55am 17.5 12.2 12.6 73 2.7 N 32 50 17 27 1011.0 - 0.0
05/10:30am 16.5 11.9 12.3 76 2.3 NNW 28 37 15 20 1011.1 - 0.0
05/10:00am 15.9 11.7 12.3 79 2.0 NNW 26 35 14 19 1011.4 - 0.0
05/09:30am 15.9 10.5 12.1 78 2.1 NNW 32 43 17 23 1011.5 - 0.0
05/09:00am 15.7 10.1 12.1 79 2.0 NW 33 48 18 26 1011.7 1011.7 1.8
05/08:30am 15.3 10.0 12.4 83 1.6 NNW 32 43 17 23 1011.5 - 1.8
05/08:00am 15.1 10.1 12.2 83 1.6 NNW 30 37 16 20 1011.4 - 1.8
05/07:30am 15.0 10.3 12.1 83 1.6 NNW 28 37 15 20 1011.2 - 1.8
05/07:00am 15.2 10.4 11.8 80 1.8 NNW 28 41 15 22 1011.0 - 1.8
05/06:49am 15.1 10.4 11.9 81 1.7 NNW 28 46 15 25 1011.0 - 1.8
05/06:30am 14.9 10.5 11.7 81 1.7 NNW 26 37 14 20 1011.0 - 1.8
05/06:00am 15.0 10.2 11.8 81 1.7 NNW 28 39 15 21 1010.9 1010.9 1.8
05/05:30am 14.8 10.0 11.8 82 1.6 NNW 28 39 15 21 1010.9 - 1.8
05/05:00am 14.6 9.8 11.7 83 1.6 NW 28 41 15 22 1010.8 - 1.8
05/04:30am 14.7 9.2 11.8 83 1.6 NW 32 46 17 25 1010.6 - 1.8
05/04:00am 14.5 10.5 11.8 84 1.5 NW 24 32 13 17 1010.6 - 1.8
05/03:30am 14.1 9.7 11.8 86 1.2 NNW 26 32 14 17 1010.6 - 1.8
05/03:00am 14.3 9.5 11.8 85 1.3 NW 28 39 15 21 1010.7 1010.7 1.8
05/02:30am 13.7 9.6 11.6 87 1.1 NW 24 32 13 17 1011.0 - 1.8
05/02:00am 13.9 9.5 11.6 86 1.2 NW 26 33 14 18 1010.9 - 1.8
05/01:30am 13.6 8.8 11.8 89 1.0 NW 28 35 15 19 1011.0 - 1.8
05/01:00am 13.7 9.3 11.7 88 1.1 NW 26 35 14 19 1011.1 - 1.4
05/12:30am 13.6 7.9 11.8 89 1.0 NW 33 52 18 28 1011.2 - 1.2
05/12:26am 13.9 8.3 11.6 86 1.2 NW 32 52 17 28 1011.2 - 0.8
05/12:00am 14.3 9.4 11.3 82 1.6 NNW 28 39 15 21 1011.1 1011.1 0.8
 
Date/Time
EST
Temp
°C
App
Temp
°C
Dew
Point
Rel
Hum
%
Delta-T
°C
Wind Press
QNH
hPa
Press
MSL
hPa
Rain
since 9 am
mm
Dir
 
Spd
km/h
Gust
km/h
Spd
kts
Gust
kts
04/11:30pm 13.3 10.1 11.4 88 1.0 NNW 19 26 10 14 1011.1 - 0.8
04/11:00pm 13.3 9.3 11.7 90 0.9 NW 24 35 13 19 1011.4 - 0.8
04/10:41pm 13.7 8.8 11.4 86 1.2 NW 28 48 15 26 1011.5 - 0.8
04/10:30pm 13.4 9.6 11.1 86 1.2 NW 22 37 12 20 1011.5 - 0.8
04/10:00pm 13.1 9.5 11.7 91 0.7 NW 22 30 12 16 1011.6 - 0.8
04/09:30pm 13.2 10.0 11.3 88 1.0 NNW 19 26 10 14 1011.5 - 0.6
04/09:00pm 12.1 9.5 10.8 92 0.7 NW 15 20 8 11 1011.5 1011.5 0.6
04/08:30pm 12.6 7.6 11.0 90 0.8 NW 28 44 15 24 1011.7 - 0.6
04/08:00pm 13.2 7.3 10.6 84 1.4 NW 32 50 17 27 1011.4 - 0.0
04/07:54pm 13.2 8.1 10.6 84 1.4 NW 28 50 15 27 1011.4 - 0.0
04/07:30pm 13.1 9.3 9.9 81 1.6 NNW 20 28 11 15 1011.3 - 0.0
04/07:00pm 12.8 8.7 10.2 84 1.3 NW 22 28 12 15 1011.2 - 0.0
04/06:30pm 12.9 7.6 9.7 81 1.6 NW 28 44 15 24 1011.0 - 0.0
04/06:00pm 12.8 8.2 9.8 82 1.5 NNW 24 33 13 18 1010.6 1010.6 0.0
04/05:30pm 12.7 8.6 10.1 84 1.3 NW 22 33 12 18 1010.5 - 0.0
04/05:00pm 12.7 8.8 9.5 81 1.6 NW 20 26 11 14 1010.3 - 0.0
04/04:30pm 13.4 8.7 9.3 76 2.1 NW 24 35 13 19 1010.2 - 0.0
04/04:00pm 13.8 8.6 9.0 73 2.4 NW 26 39 14 21 1010.1 - 0.0
04/03:30pm 14.9 8.1 7.5 61 3.7 NW 33 46 18 25 1009.9 - 0.0
04/03:26pm 14.9 9.0 7.5 61 3.7 WNW 28 46 15 25 1009.8 - 0.0
04/03:00pm 14.3 9.5 8.9 70 2.7 WNW 24 32 13 17 1009.9 1009.9 0.0
04/02:30pm 14.1 7.8 7.4 64 3.3 WNW 30 41 16 22 1009.7 - 0.0
04/02:00pm 14.1 7.9 7.9 66 3.1 WNW 30 43 16 23 1009.9 - 0.0
04/01:30pm 14.3 8.9 7.8 65 3.2 NW 26 35 14 19 1009.9 - 0.0
04/01:00pm 13.6 7.0 7.6 67 2.9 WNW 32 43 17 23 1010.0 - 0.0
04/12:30pm 14.1 7.7 6.9 62 3.5 WNW 30 39 16 21 1010.1 - 0.0
04/12:02pm 14.6 8.6 6.9 60 3.8 NW 28 46 15 25 1010.3 - 0.0
04/12:00pm 14.9 9.4 7.5 61 3.7 NW 26 35 14 19 1010.3 1010.3 0.0
04/11:30am 13.4 8.3 7.6 68 2.8 W 24 35 13 19 1010.7 - 0.0
04/11:00am 14.8 10.1 7.6 62 3.6 WNW 22 30 12 16 1010.3 - 0.0
04/10:30am 14.0 8.8 7.1 63 3.4 WNW 24 32 13 17 1010.5 - 0.0
04/10:00am 13.3 8.7 6.4 63 3.3 W 20 30 11 16 1010.3 - 0.0
04/09:30am 11.5 9.1 7.0 74 2.1 S 9 13 5 7 1010.4 - 0.0
04/09:00am 10.7 7.9 6.8 77 1.8 S 11 17 6 9 1010.3 1010.3 11.8
04/08:30am 9.1 8.4 7.1 87 0.9 CALM 0 2 0 1 1009.8 - 11.8
04/08:00am 7.2 6.1 5.2 87 0.9 CALM 0 0 0 0 1009.4 - 11.8
04/07:30am 7.1 4.1 4.2 82 1.3 WSW 9 11 5 6 1009.1 - 11.8
04/07:00am 8.4 3.9 4.2 75 1.8 WSW 17 22 9 12 1008.2 - 11.8
04/06:30am 8.5 3.9 3.8 72 2.0 W 17 24 9 13 1007.5 - 11.8
04/06:00am 8.6 3.8 4.8 77 1.7 W 19 24 10 13 1007.1 1007.1 11.8
04/05:30am 9.1 3.4 5.1 76 1.8 W 24 35 13 19 1006.5 - 11.8
04/05:00am 7.2 2.9 3.4 77 1.6 W 15 17 8 9 1006.1 - 11.8
04/04:30am 8.1 3.2 4.1 76 1.7 W 19 24 10 13 1005.7 - 11.8
04/04:00am 8.6 1.1 4.2 74 1.9 WSW 33 46 18 25 1005.2 - 11.8
04/03:52am 9.3 0.6 4.3 71 2.2 WSW 39 46 21 25 1005.2 - 11.8
04/03:30am 8.4 3.9 4.0 74 1.9 W 17 24 9 13 1004.8 - 11.8
04/03:00am 8.9 3.3 3.7 70 2.3 W 22 28 12 15 1004.5 1004.5 11.8
04/02:30am 8.8 1.9 2.6 65 2.6 W 28 39 15 21 1004.1 - 11.8
04/02:10am 9.5 2.8 3.7 67 2.5 W 28 46 15 25 1003.6 - 11.8
04/02:00am 9.2 4.1 4.2 71 2.2 W 20 28 11 15 1003.5 - 11.8
04/01:30am 9.1 2.4 3.7 69 2.3 W 28 37 15 20 1003.0 - 11.8
04/01:00am 7.9 2.8 4.1 77 1.6 W 20 26 11 14 1002.6 - 11.8
04/12:30am 8.5 1.5 4.3 75 1.8 W 30 43 16 23 1002.5 - 11.8
04/12:00am 8.6 3.0 5.4 80 1.4 WSW 24 35 13 19 1002.3 1002.3 11.8
 
Date/Time
EST
Temp
°C
App
Temp
°C
Dew
Point
Rel
Hum
%
Delta-T
°C
Wind Press
QNH
hPa
Press
MSL
hPa
Rain
since 9 am
mm
Dir
 
Spd
km/h
Gust
km/h
Spd
kts
Gust
kts
03/11:30pm 8.7 3.1 5.4 80 1.5 W 24 30 13 16 1001.7 - 11.8
03/11:00pm 8.3 4.1 5.9 85 1.1 WSW 17 22 9 12 1001.6 - 11.8
03/10:30pm 8.4 2.9 5.9 84 1.1 W 24 33 13 18 1001.1 - 11.6
03/10:08pm 8.5 1.5 6.1 85 1.1 W 32 50 17 27 1000.9 - 11.4
03/10:00pm 8.4 1.4 6.2 86 1.0 W 32 41 17 22 1001.1 - 10.8
03/09:30pm 8.6 3.1 6.1 84 1.1 WSW 24 32 13 17 1000.8 - 10.2
03/09:17pm 9.1 1.2 6.2 82 1.3 W 37 56 20 30 1000.6 - 10.2
03/09:11pm 9.7 0.5 5.5 75 1.9 WSW 43 56 23 30 1000.6 - 9.8
03/09:00pm 9.8 3.4 5.0 72 2.2 WNW 28 46 15 25 999.9 999.9 9.8
03/08:30pm 10.8 2.9 4.5 65 2.8 W 35 61 19 33 999.5 - 9.8
03/08:13pm 9.9 3.5 5.3 73 2.1 WNW 28 50 15 27 999.2 - 9.8
03/08:00pm 9.9 4.3 5.5 74 2.0 W 24 32 13 17 999.0 - 9.8
03/07:30pm 9.5 3.4 4.7 72 2.1 WNW 26 35 14 19 998.8 - 9.8
03/07:00pm 8.7 3.0 4.9 77 1.7 WSW 24 33 13 18 998.4 - 9.8
03/06:31pm 10.5 3.7 5.1 69 2.5 W 30 50 16 27 997.9 - 9.8
03/06:30pm 10.4 4.1 5.6 72 2.2 W 28 41 15 22 997.9 - 9.8
03/06:00pm 10.2 5.1 6.2 76 1.9 W 22 28 12 15 996.8 996.8 9.8
03/05:30pm 9.8 5.5 7.1 83 1.3 W 19 24 10 13 996.1 - 9.8
03/05:00pm 10.1 4.8 6.6 79 1.6 W 24 32 13 17 995.4 - 9.6
03/04:30pm 9.8 5.4 7.2 84 1.2 W 20 26 11 14 995.1 - 9.6
03/04:00pm 9.6 3.7 7.5 87 1.0 WSW 28 35 15 19 994.5 - 9.6
03/03:49pm 10.0 4.2 7.8 86 1.1 WSW 28 54 15 29 994.5 - 9.6
03/03:30pm 9.9 5.3 8.3 90 0.8 W 22 32 12 17 994.2 - 9.4
03/03:00pm 10.1 4.1 8.7 91 0.7 W 30 48 16 26 993.8 993.8 9.0
03/02:53pm 10.1 4.4 8.5 90 0.8 W 28 48 15 26 993.3 - 8.6
03/02:30pm 10.4 6.1 9.2 92 0.6 WSW 22 32 12 17 992.9 - 8.2
03/02:24pm 10.4 4.9 9.2 92 0.6 WSW 28 46 15 25 992.7 - 8.0
03/02:00pm 10.5 4.9 8.8 89 0.8 W 28 35 15 19 992.9 - 7.2
03/01:30pm 11.3 4.8 8.3 82 1.5 W 32 46 17 25 992.3 - 6.8
03/01:00pm 12.8 7.7 9.3 79 1.8 WNW 26 35 14 19 992.4 - 6.4
03/12:30pm 13.1 8.3 10.3 83 1.4 WNW 26 35 14 19 992.5 - 6.4
03/12:00pm 12.4 8.9 10.8 90 0.8 NW 20 41 11 22 993.0 993.0 6.4
03/11:30am 12.2 9.6 10.6 90 0.8 W 15 20 8 11 992.5 - 6.2
03/11:00am 12.2 9.2 10.8 91 0.7 WSW 17 20 9 11 991.7 - 6.2
03/10:30am 11.4 5.4 10.0 91 0.7 WSW 32 43 17 23 992.7 - 6.2
03/10:10am 12.3 6.3 10.9 91 0.7 W 33 57 18 31 992.6 - 6.0
03/10:00am 12.8 7.7 11.9 94 0.5 WNW 30 46 16 25 992.2 - 5.8
03/09:30am 12.5 8.2 12.0 97 0.3 W 26 33 14 18 991.7 - 4.4
03/09:00am 12.2 11.4 11.6 96 0.3 NW 7 11 4 6 991.9 991.9 20.2
03/08:30am 12.2 10.9 11.3 94 0.5 WNW 9 13 5 7 992.2 - 16.2
03/08:00am 12.5 9.4 11.6 94 0.5 W 19 28 10 15 992.2 - 14.4
03/07:30am 13.2 8.3 12.4 95 0.4 NW 30 39 16 21 992.5 - 14.0
03/07:00am 13.2 9.0 12.4 95 0.4 NW 26 35 14 19 992.6 - 12.4
03/06:30am 13.0 9.1 12.1 94 0.5 NW 24 32 13 17 992.9 - 10.8
03/06:00am 13.1 9.6 12.3 95 0.4 WNW 22 33 12 18 993.3 993.3 9.8
03/05:30am 13.1 8.5 12.2 94 0.5 W 28 44 15 24 993.3 - 8.6
03/05:09am 13.7 5.0 12.6 93 0.6 W 50 69 27 37 993.1 - 7.8
03/05:04am 14.7 9.6 13.6 93 0.6 NW 33 56 18 30 992.5 - 4.4
03/05:00am 14.5 9.9 13.4 93 0.6 WNW 30 63 16 34 992.6 - 4.2
03/04:57am 14.5 9.4 13.2 92 0.7 WNW 32 63 17 34 992.5 - 4.0
03/04:30am 14.8 5.5 13.0 89 1.0 NNW 54 74 29 40 992.5 - 2.8
03/04:00am 16.0 6.5 12.4 79 2.0 NNW 54 80 29 43 992.5 - 2.4
03/03:34am 15.3 6.3 12.8 85 1.4 NNW 52 70 28 38 992.9 - 2.4
03/03:30am 15.3 7.4 12.6 84 1.5 NNW 46 63 25 34 993.0 - 2.2
03/03:00am 15.6 6.3 12.0 79 2.0 NNW 52 76 28 41 993.7 993.7 2.0
03/02:30am 16.2 7.3 11.8 75 2.4 NNW 50 70 27 38 994.4 - 2.0
03/02:00am 16.0 5.9 11.8 76 2.3 NNW 56 78 30 42 994.9 - 2.0
03/01:30am 16.5 6.3 11.4 72 2.8 NNW 56 76 30 41 995.3 - 2.0
03/01:00am 16.4 7.3 11.1 71 2.8 NNW 50 72 27 39 995.8 - 2.0
03/12:30am 16.3 7.1 11.0 71 2.8 NNW 50 74 27 40 996.6 - 2.0
03/12:00am 16.3 7.1 10.8 70 3.0 NNW 50 70 27 38 997.0 997.0 2.0
 
Date/Time
EST
Temp
°C
App
Temp
°C
Dew
Point
Rel
Hum
%
Delta-T
°C
Wind Press
QNH
hPa
Press
MSL
hPa
Rain
since 9 am
mm
Dir
 
Spd
km/h
Gust
km/h
Spd
kts
Gust
kts
02/11:30pm 16.3 7.8 10.8 70 2.9 NNW 46 67 25 36 997.7 - 2.0
02/11:00pm 16.3 7.4 10.6 69 3.0 NNW 48 78 26 42 998.1 - 2.0
02/10:30pm 16.1 7.6 10.6 70 2.9 NNW 46 65 25 35 998.9 - 2.0
02/10:11pm 16.1 7.3 10.8 71 2.8 NNW 48 69 26 37 998.8 - 2.0
02/10:00pm 16.0 7.5 10.7 71 2.8 NNW 46 63 25 34 999.2 - 2.0
02/09:59pm 16.1 8.0 10.6 70 2.9 NNW 44 63 24 34 999.2 - 2.0
02/09:30pm 15.8 8.7 11.0 73 2.6 NNW 39 50 21 27 999.6 - 2.0
02/09:00pm 15.0 7.2 11.0 77 2.1 NW 43 65 23 35 1000.2 1000.2 2.0
02/08:30pm 15.4 6.2 10.8 74 2.4 NW 50 69 27 37 1000.6 - 1.8
02/08:02pm 16.1 8.1 10.4 69 3.0 NNW 43 61 23 33 1000.8 - 1.8
02/08:00pm 16.0 8.0 10.3 69 3.0 NNW 43 57 23 31 1000.8 - 1.8
02/07:30pm 15.9 8.0 10.7 71 2.8 NNW 43 59 23 32 1001.2 - 1.8
02/07:00pm 15.8 8.1 10.3 70 2.9 NNW 41 56 22 30 1001.2 - 1.8
02/06:32pm 15.8 8.5 10.3 70 2.9 NNW 39 61 21 33 1001.3 - 1.8

Other Formats:

Comma delimited format used in spreadsheet applications
http://www.bom.gov.au/fwo/IDT60801/IDT60801.94953.axf

JavaScript Object Notation format (JSON) in row-major order
http://www.bom.gov.au/fwo/IDT60801/IDT60801.94953.json